Time;durP1;ratioP1;P1;durP2;ratioP2;P2;SDS_P1;SDS_P2;PMS_P1;PMS_P2;Temp;Humidity;BMP_temperature;BMP_pressure;BME280_temperature;BME280_humidity;BME280_pressure;Samples;Min_cycle;Max_cycle;Signal;HPM_P1;HPM_P2
2022/01/05 00:01:49;;;;;;;2.25;1.42;;;;;;;4.99;77.05;98892.14;1728998;82;21100;-78
2022/01/05 00:04:16;;;;;;;2.15;1.50;;;;;;;4.83;77.04;98890.57;1729164;82;22421;-78
2022/01/05 00:06:43;;;;;;;2.90;1.45;;;;;;;4.70;77.20;98888.59;1729251;82;21560;-78
2022/01/05 00:09:09;;;;;;;2.98;1.77;;;;;;;4.60;77.28;98891.89;1729031;82;21113;-78
2022/01/05 00:11:36;;;;;;;6.45;2.00;;;;;;;4.54;77.54;98894.36;1728906;81;21077;-78
2022/01/05 00:14:03;;;;;;;5.60;1.42;;;;;;;4.51;77.56;98895.19;1728888;82;21069;-78
2022/01/05 00:16:29;;;;;;;2.65;0.82;;;;;;;4.46;77.31;98902.90;1728845;82;21746;-78
2022/01/05 00:18:58;;;;;;;4.25;1.70;;;;;;;4.35;77.06;98902.24;1728816;82;21602;-78
2022/01/05 00:21:25;;;;;;;3.87;1.12;;;;;;;4.21;77.01;98896.33;1728981;82;21104;-78
2022/01/05 00:23:51;;;;;;;2.65;1.05;;;;;;;4.08;76.97;98901.70;1729036;82;21041;-78
2022/01/05 00:26:21;;;;;;;3.20;1.22;;;;;;;3.96;76.94;98908.37;1728598;82;21076;-78
2022/01/05 00:28:48;;;;;;;4.15;1.45;;;;;;;3.82;76.86;98911.55;1728698;82;21983;-77
2022/01/05 00:31:14;;;;;;;4.55;1.32;;;;;;;3.68;76.80;98921.66;1728958;82;21061;-78
2022/01/05 00:33:41;;;;;;;8.45;1.47;;;;;;;3.58;76.75;98929.20;1728994;82;21104;-78
2022/01/05 00:36:08;;;;;;;6.00;1.75;;;;;;;3.48;76.77;98921.61;1728988;82;21467;-78
2022/01/05 00:38:34;;;;;;;4.05;1.35;;;;;;;3.43;76.92;98928.41;1728804;82;21588;-78
2022/01/05 00:41:04;;;;;;;6.55;1.50;;;;;;;3.39;76.95;98931.79;1701810;82;21076;-78
2022/01/05 00:43:31;;;;;;;7.33;1.42;;;;;;;3.33;76.95;98922.11;1728829;82;21063;-78
2022/01/05 00:45:57;;;;;;;6.25;1.65;;;;;;;3.28;76.89;98932.81;1728963;82;21057;-78
2022/01/05 00:48:30;;;;;;;7.55;2.05;;;;;;;3.20;76.88;98940.43;1729106;82;21065;-78
2022/01/05 00:50:59;;;;;;;5.83;1.50;;;;;;;3.13;76.82;98941.54;1729192;82;21085;-78
2022/01/05 00:53:25;;;;;;;8.45;1.98;;;;;;;3.01;76.83;98937.78;1729208;82;21788;-78
2022/01/05 00:55:53;;;;;;;4.15;1.80;;;;;;;2.97;76.87;98946.34;1702222;81;21112;-78
2022/01/05 00:58:20;;;;;;;9.23;2.20;;;;;;;2.89;76.85;98948.75;1729579;82;21033;-78
2022/01/05 01:00:47;;;;;;;7.75;1.82;;;;;;;2.83;76.91;98956.78;1729337;82;21120;-78
2022/01/05 01:03:13;;;;;;;7.80;1.90;;;;;;;2.77;77.02;98963.13;1729339;82;21124;-78
2022/01/05 01:05:40;;;;;;;10.08;1.75;;;;;;;2.72;77.08;98969.47;1702186;82;21816;-78
2022/01/05 01:08:07;;;;;;;9.65;2.25;;;;;;;2.68;77.12;98971.53;1729228;81;21568;-79
2022/01/05 01:10:34;;;;;;;9.10;2.72;;;;;;;2.65;77.17;98968.87;1729102;82;21131;-81
2022/01/05 01:13:00;;;;;;;11.03;2.33;;;;;;;2.63;77.24;98975.31;1729105;81;21108;-78
2022/01/05 01:15:27;;;;;;;8.65;2.77;;;;;;;2.60;77.25;98973.92;1728956;82;21080;-78
2022/01/05 01:17:54;;;;;;;12.50;2.45;;;;;;;2.55;77.31;98972.89;1728953;82;21788;-78
2022/01/05 01:20:20;;;;;;;7.85;2.20;;;;;;;2.51;77.38;98974.52;1728791;82;21143;-79
2022/01/05 01:22:50;;;;;;;14.23;2.50;;;;;;;2.47;77.49;98975.28;1728881;82;21081;-79
2022/01/05 01:25:17;;;;;;;11.22;2.42;;;;;;;2.38;77.52;98963.33;1701890;82;21667;-79
2022/01/05 01:27:44;;;;;;;8.55;2.17;;;;;;;2.43;77.57;98979.06;1728490;82;21606;-78
2022/01/05 01:30:11;;;;;;;8.78;2.62;;;;;;;2.38;77.57;98984.53;1728637;82;21839;-79
2022/01/05 01:32:38;;;;;;;10.38;2.47;;;;;;;2.32;77.63;98986.10;1728878;82;21619;-78
2022/01/05 01:35:08;;;;;;;11.55;2.70;;;;;;;2.27;77.59;98991.59;1728739;82;21622;-79
2022/01/05 01:37:35;;;;;;;9.53;2.20;;;;;;;2.21;77.65;98988.80;1728761;82;21057;-79
2022/01/05 01:40:03;;;;;;;10.00;2.62;;;;;;;2.16;77.74;98992.99;1728905;82;21088;-78
2022/01/05 01:42:30;;;;;;;10.80;2.10;;;;;;;2.12;77.82;98993.70;1728757;82;21815;-78
2022/01/05 01:44:59;;;;;;;11.73;2.80;;;;;;;2.07;77.87;98993.58;1701736;82;21061;-78
2022/01/05 01:47:25;;;;;;;12.80;2.42;;;;;;;2.06;77.96;99006.08;1728921;82;21123;-78
2022/01/05 01:49:54;;;;;;;9.73;2.92;;;;;;;2.04;78.11;98998.67;1728867;82;21080;-78
2022/01/05 01:52:21;;;;;;;9.15;2.67;;;;;;;2.02;78.09;98994.28;1728738;82;21618;-78
2022/01/05 01:54:47;;;;;;;8.33;2.60;;;;;;;2.01;78.14;98992.50;1728885;82;21851;-78
2022/01/05 01:57:14;;;;;;;9.75;2.40;;;;;;;1.98;78.16;98993.72;1728802;82;21574;-78
2022/01/05 01:59:41;;;;;;;10.03;2.17;;;;;;;1.97;78.24;98986.37;1728724;82;21052;-77
2022/01/05 02:02:08;;;;;;;9.33;2.15;;;;;;;1.96;78.29;98992.80;1728923;82;21104;-78
2022/01/05 02:04:36;;;;;;;13.03;2.12;;;;;;;1.94;78.34;98991.45;1728879;82;21072;-78
2022/01/05 02:07:04;;;;;;;9.70;2.27;;;;;;;1.95;78.45;98997.08;1728945;82;21795;-78
2022/01/05 02:09:31;;;;;;;11.35;2.25;;;;;;;1.96;78.54;98999.28;1728954;82;21695;-77
2022/01/05 02:11:58;;;;;;;11.00;2.50;;;;;;;1.96;78.60;99004.05;1729051;82;21574;-78
2022/01/05 02:14:24;;;;;;;5.50;1.70;;;;;;;1.99;78.72;99004.16;1729014;82;21101;-79
2022/01/05 02:16:51;;;;;;;9.23;2.22;;;;;;;2.00;78.78;99009.80;1729126;82;21058;-79
2022/01/05 02:19:18;;;;;;;9.45;2.92;;;;;;;2.02;78.85;99012.02;1729141;82;21839;-78
2022/01/05 02:21:45;;;;;;;7.67;2.30;;;;;;;2.03;78.82;99016.39;1729223;82;21065;-78
2022/01/05 02:24:11;;;;;;;10.60;2.65;;;;;;;2.03;78.78;99016.39;1729235;82;20990;-78
2022/01/05 02:26:38;;;;;;;10.95;2.60;;;;;;;2.03;78.77;99012.50;1729053;82;21786;-78
2022/01/05 02:29:05;;;;;;;10.08;1.98;;;;;;;2.01;78.80;99009.37;1729019;82;21595;-79
2022/01/05 02:31:32;;;;;;;8.08;1.80;;;;;;;2.00;78.74;99013.69;1728762;82;22546;-79
2022/01/05 02:33:59;;;;;;;7.28;2.25;;;;;;;1.94;78.72;99007.02;1729102;82;21547;-79
2022/01/05 02:36:26;;;;;;;8.43;2.08;;;;;;;1.97;78.63;99012.31;1729054;82;21566;-79
2022/01/05 02:38:53;;;;;;;9.30;2.02;;;;;;;1.96;78.63;99017.02;1729062;82;21077;-78
2022/01/05 02:41:19;;;;;;;10.75;2.33;;;;;;;1.91;78.58;99022.05;1729101;81;21072;-78
2022/01/05 02:43:46;;;;;;;10.55;2.20;;;;;;;1.86;78.59;99026.23;1729002;82;21733;-78
2022/01/05 02:46:15;;;;;;;9.63;2.70;;;;;;;1.83;78.60;99036.93;1728941;82;21104;-78
2022/01/05 02:48:42;;;;;;;8.85;2.85;;;;;;;1.77;78.65;99043.23;1729186;82;21088;-79
2022/01/05 02:51:09;;;;;;;12.28;2.52;;;;;;;1.73;78.68;99048.73;1728952;82;21068;-78
2022/01/05 02:53:36;;;;;;;12.40;1.90;;;;;;;1.68;78.77;99053.75;1702601;82;21574;-78
2022/01/05 02:56:04;;;;;;;8.08;2.08;;;;;;;1.65;78.90;99061.45;1729491;82;21753;-78
2022/01/05 02:58:30;;;;;;;12.28;2.42;;;;;;;1.63;79.04;99071.28;1729241;82;21041;-78
2022/01/05 03:00:57;;;;;;;7.70;1.98;;;;;;;1.55;79.20;99047.69;1729211;82;21115;-77
2022/01/05 03:03:24;;;;;;;8.63;1.62;;;;;;;1.63;79.32;99067.39;1728968;82;21053;-77
2022/01/05 03:05:50;;;;;;;9.00;2.33;;;;;;;1.59;79.32;99063.81;1728887;82;21068;-78
2022/01/05 03:08:17;;;;;;;9.68;1.85;;;;;;;1.63;79.36;99070.86;1729002;82;21782;-77
2022/01/05 03:10:44;;;;;;;7.58;1.92;;;;;;;1.64;79.48;99077.83;1728805;82;21093;-78
2022/01/05 03:13:14;;;;;;;6.37;1.90;;;;;;;1.67;79.57;99074.44;1728764;81;21056;-78
2022/01/05 03:15:40;;;;;;;5.87;1.87;;;;;;;1.71;79.71;99064.23;1728895;82;21658;-79
2022/01/05 03:18:07;;;;;;;10.20;2.40;;;;;;;1.83;79.92;99067.64;1728998;82;21064;-78
2022/01/05 03:20:34;;;;;;;10.32;2.40;;;;;;;1.96;80.06;99060.27;1729023;82;21704;-78
2022/01/05 03:23:04;;;;;;;11.33;1.82;;;;;;;2.06;80.05;99060.58;1729761;82;21045;-78
2022/01/05 03:25:31;;;;;;;10.65;1.95;;;;;;;2.20;80.08;99058.87;1729107;82;21395;-79
2022/01/05 03:27:57;;;;;;;8.70;2.20;;;;;;;2.31;79.98;99058.35;1727027;81;21041;-79
2022/01/05 03:30:27;;;;;;;8.05;2.25;;;;;;;2.43;79.90;99055.23;1726443;83;21470;-80
2022/01/05 03:35:29;;;;;;;10.45;2.17;;;;;;;2.53;79.52;99054.69;1726894;83;22306;-79
2022/01/05 03:37:56;;;;;;;11.73;2.08;;;;;;;2.51;79.37;99051.14;1726614;82;21060;-78
2022/01/05 03:40:23;;;;;;;7.22;2.17;;;;;;;2.61;79.35;99062.71;1726306;82;21104;-78
2022/01/05 03:42:49;;;;;;;8.38;2.35;;;;;;;2.65;79.26;99054.59;1726318;83;21068;-79
2022/01/05 03:45:16;;;;;;;6.92;2.98;;;;;;;2.62;79.12;99049.30;1726351;83;21751;-79
2022/01/05 03:47:45;;;;;;;14.25;3.20;;;;;;;2.59;79.03;99051.39;1726338;83;21065;-78
2022/01/05 03:50:12;;;;;;;6.62;2.20;;;;;;;2.55;78.93;99040.85;1726264;83;21092;-77
2022/01/05 03:52:38;;;;;;;6.15;1.90;;;;;;;2.46;78.79;99038.46;1726463;83;21120;-78
2022/01/05 03:55:07;;;;;;;7.03;1.95;;;;;;;2.39;78.76;99042.13;1726467;83;21037;-78
2022/01/05 03:57:34;;;;;;;8.28;2.58;;;;;;;2.30;78.76;99040.13;1727161;82;21994;-79
2022/01/05 04:00:00;;;;;;;10.65;2.27;;;;;;;2.23;78.81;99039.05;1726107;83;21061;-79
2022/01/05 04:02:29;;;;;;;12.13;2.20;;;;;;;2.19;78.92;99037.19;1726190;83;21344;-79
2022/01/05 04:04:55;;;;;;;4.97;1.75;;;;;;;2.17;79.03;99040.59;1726169;83;21081;-79
2022/01/05 04:07:22;;;;;;;6.62;1.90;;;;;;;2.14;79.05;99042.25;1726220;83;21092;-79
2022/01/05 04:09:49;;;;;;;7.90;1.92;;;;;;;2.13;79.14;99039.61;1726335;83;21763;-79
2022/01/05 04:12:16;;;;;;;8.63;2.10;;;;;;;2.12;79.15;99045.23;1726297;83;21069;-79
2022/01/05 04:14:42;;;;;;;10.28;2.25;;;;;;;2.12;79.18;99043.93;1726390;83;21072;-79
2022/01/05 04:17:09;;;;;;;9.65;1.77;;;;;;;2.11;79.29;99036.95;1726375;83;21144;-79
2022/01/05 04:19:36;;;;;;;14.40;2.17;;;;;;;2.11;79.31;99040.85;1726405;83;21074;-79
2022/01/05 04:22:03;;;;;;;9.38;2.37;;;;;;;2.09;79.27;99041.22;1726353;82;21773;-79
2022/01/05 04:24:30;;;;;;;11.15;2.02;;;;;;;2.07;79.34;99044.62;1726480;83;21076;-78
2022/01/05 04:26:56;;;;;;;11.70;2.25;;;;;;;2.04;79.36;99046.68;1700256;82;21076;-78
2022/01/05 04:29:23;;;;;;;7.97;2.40;;;;;;;2.03;79.43;99053.14;1729673;82;21072;-78
2022/01/05 04:31:50;;;;;;;9.45;2.45;;;;;;;2.02;79.46;99056.56;1729625;82;21068;-78
2022/01/05 04:34:20;;;;;;;7.62;2.05;;;;;;;2.02;79.55;99048.77;1729182;82;21820;-77
2022/01/05 04:36:47;;;;;;;7.20;2.05;;;;;;;1.88;79.52;99027.16;1729105;82;21029;-78
2022/01/05 04:39:16;;;;;;;9.95;2.17;;;;;;;1.97;79.51;99044.75;1729373;82;21053;-78
2022/01/05 04:41:43;;;;;;;12.85;2.55;;;;;;;1.93;79.58;99045.06;1729152;82;21634;-78
2022/01/05 04:44:10;;;;;;;10.95;2.58;;;;;;;1.91;79.64;99048.00;1729171;82;21084;-78
2022/01/05 04:46:36;;;;;;;8.23;2.02;;;;;;;1.91;79.73;99049.72;1729069;82;21756;-79
2022/01/05 04:49:04;;;;;;;12.15;2.22;;;;;;;1.92;79.79;99052.80;1729002;81;21040;-79
2022/01/05 04:51:31;;;;;;;9.95;2.12;;;;;;;1.91;79.85;99040.64;1728881;82;21057;-79
2022/01/05 04:53:58;;;;;;;10.10;2.15;;;;;;;1.89;79.87;99033.23;1729024;82;21464;-79
2022/01/05 04:56:25;;;;;;;9.13;2.00;;;;;;;1.88;79.88;99032.78;1726083;81;21128;-79
2022/01/05 04:58:51;;;;;;;13.08;2.40;;;;;;;1.87;79.93;99038.78;1728818;82;21689;-78
2022/01/05 05:01:18;;;;;;;13.10;2.33;;;;;;;1.87;79.96;99036.19;1728817;81;21093;-78
2022/01/05 05:03:45;;;;;;;9.10;2.33;;;;;;;1.89;80.09;99022.42;1729005;82;21880;-78
2022/01/05 05:06:11;;;;;;;9.78;2.10;;;;;;;1.91;80.08;99026.37;1704111;82;21626;-79
2022/01/05 05:08:38;;;;;;;7.55;2.00;;;;;;;1.88;80.05;99029.76;1728810;82;21147;-79
2022/01/05 05:11:05;;;;;;;8.43;2.37;;;;;;;1.88;80.05;99032.36;1728699;82;21800;-79
2022/01/05 05:13:32;;;;;;;9.60;2.15;;;;;;;1.88;80.05;99033.66;1728770;82;21104;-79
2022/01/05 05:15:58;;;;;;;11.43;2.62;;;;;;;1.87;80.06;99037.48;1729104;82;21092;-79
2022/01/05 05:18:25;;;;;;;8.85;2.20;;;;;;;1.85;80.06;99039.16;1729210;82;21081;-80
2022/01/05 05:20:52;;;;;;;10.30;2.25;;;;;;;1.86;80.11;99042.20;1729391;81;21796;-77
2022/01/05 05:23:19;;;;;;;9.55;2.10;;;;;;;1.85;80.15;99040.45;1729647;81;22372;-77
2022/01/05 05:25:45;;;;;;;10.55;2.12;;;;;;;1.83;80.15;99040.82;1729290;82;21074;-78
2022/01/05 05:28:12;;;;;;;13.53;2.83;;;;;;;1.83;80.16;99039.09;1726719;82;21089;-80
2022/01/05 05:30:39;;;;;;;8.15;2.22;;;;;;;1.82;80.21;99033.86;1724639;81;21076;-74
2022/01/05 05:33:05;;;;;;;9.20;2.45;;;;;;;1.83;80.19;99039.52;1724057;81;21116;-77
2022/01/05 05:35:32;;;;;;;14.23;2.90;;;;;;;1.82;80.19;99039.95;1723908;83;21716;-82
2022/01/05 05:38:02;;;;;;;14.15;2.50;;;;;;;1.80;80.24;99028.61;1724939;83;21512;-86
2022/01/05 05:40:34;;;;;;;11.00;2.47;;;;;;;1.83;80.38;99036.50;1724517;83;21046;-89
2022/01/05 05:43:03;;;;;;;10.98;2.20;;;;;;;1.87;80.43;99046.14;1677298;83;21124;-79
2022/01/05 05:45:30;;;;;;;9.63;2.40;;;;;;;1.90;80.39;99045.38;1723992;81;21097;-80
2022/01/05 05:47:56;;;;;;;8.20;2.30;;;;;;;1.92;80.41;99052.80;1724050;83;21757;-80
2022/01/05 05:50:26;;;;;;;10.35;2.50;;;;;;;1.90;80.31;99054.03;1723849;83;21068;-79
2022/01/05 05:52:53;;;;;;;12.10;2.77;;;;;;;1.87;80.25;99052.62;1723938;83;21064;-79
2022/01/05 05:55:19;;;;;;;11.73;2.83;;;;;;;1.85;80.27;99050.41;1724157;81;21132;-79
2022/01/05 05:57:46;;;;;;;10.28;2.67;;;;;;;1.83;80.25;99057.26;1724161;81;21065;-79
2022/01/05 06:00:15;;;;;;;11.83;2.25;;;;;;;1.81;80.29;99056.76;1723503;83;21073;-79
2022/01/05 06:02:41;;;;;;;12.23;2.40;;;;;;;1.79;80.27;99063.19;1723913;81;21070;-79
2022/01/05 06:05:08;;;;;;;8.03;2.17;;;;;;;1.73;80.26;99054.78;1723934;83;21046;-80
2022/01/05 06:07:35;;;;;;;8.03;2.30;;;;;;;1.72;80.32;99059.50;1699375;83;22256;-78
2022/01/05 06:10:02;;;;;;;12.05;2.92;;;;;;;1.68;80.32;99061.53;1724108;83;21125;-79
2022/01/05 06:12:29;;;;;;;10.50;3.35;;;;;;;1.66;80.38;99060.59;1714346;82;22634;-79
2022/01/05 06:15:00;;;;;;;12.43;3.00;;;;;;;1.65;80.42;99066.63;1711447;82;21030;-79
2022/01/05 06:17:32;;;;;;;8.43;2.45;;;;;;;1.65;80.51;99061.84;1700737;82;21149;-80
2022/01/05 06:19:59;;;;;;;9.43;2.67;;;;;;;1.65;80.51;99064.43;1690217;83;21070;-80
2022/01/05 06:22:26;;;;;;;12.15;2.98;;;;;;;1.63;80.48;99074.75;1699546;83;21152;-79
2022/01/05 06:24:53;;;;;;;10.08;3.08;;;;;;;1.61;80.53;99082.02;1724519;83;21741;-80
2022/01/05 06:27:20;;;;;;;9.50;3.02;;;;;;;1.62;80.60;99082.50;1724393;82;21563;-80
2022/01/05 16:30:10;;;;;;;13.32;5.87;;;;;;;3.39;76.87;99189.27;1709873;82;21067;-80
2022/01/05 16:32:37;;;;;;;16.67;6.65;;;;;;;3.47;76.93;99194.26;1701236;84;21071;-80
2022/01/05 16:35:08;;;;;;;14.60;6.75;;;;;;;3.50;76.93;99191.33;1665094;85;21110;-80
2022/01/05 16:37:35;;;;;;;18.30;9.88;;;;;;;3.56;76.90;99200.16;1664913;85;22651;-80
2022/01/05 16:40:02;;;;;;;13.75;6.35;;;;;;;3.59;76.87;99192.02;1666345;85;21607;-79
2022/01/05 16:42:34;;;;;;;16.87;6.65;;;;;;;3.62;76.84;99193.41;1666524;86;21090;-79
2022/01/05 16:45:02;;;;;;;17.60;6.67;;;;;;;3.66;76.94;99196.55;1631896;87;21573;-80
2022/01/05 16:47:29;;;;;;;18.30;6.33;;;;;;;3.70;76.91;99194.49;1639837;87;21078;-80
2022/01/05 16:49:57;;;;;;;12.13;7.00;;;;;;;3.73;76.93;99197.59;1647270;87;21680;-80
2022/01/05 16:52:24;;;;;;;10.05;5.90;;;;;;;3.74;76.90;99200.66;1635185;86;21098;-80
2022/01/05 16:55:00;;;;;;;10.40;5.70;;;;;;;3.74;76.94;99200.66;1661704;85;21123;-80
2022/01/05 17:02:33;;;;;;;13.68;5.90;;;;;;;3.77;77.06;99205.06;1696752;84;21957;-80
2022/01/05 17:04:59;;;;;;;15.53;6.28;;;;;;;3.63;77.07;99168.27;1697369;83;21452;-80
2022/01/05 17:07:26;;;;;;;15.10;8.40;;;;;;;3.82;77.06;99202.17;1702750;83;21070;-80
2022/01/05 17:09:52;;;;;;;21.35;12.43;;;;;;;3.85;77.15;99204.88;1696555;84;21106;-80
2022/01/05 17:12:19;;;;;;;15.13;7.85;;;;;;;3.86;77.17;99205.31;1694486;83;21142;-80
2022/01/05 17:14:50;;;;;;;16.90;9.10;;;;;;;3.86;77.16;99204.02;1700308;83;21748;-80
2022/01/05 17:17:16;;;;;;;23.00;10.60;;;;;;;3.86;77.24;99202.28;1700569;84;21117;-80
2022/01/05 17:19:43;;;;;;;23.07;14.15;;;;;;;3.91;77.29;99205.02;1700932;84;21536;-79
2022/01/05 17:22:12;;;;;;;22.42;13.68;;;;;;;3.93;77.28;99194.23;1700251;84;21351;-80
2022/01/05 17:24:39;;;;;;;22.98;11.97;;;;;;;3.94;77.23;99192.50;1680046;84;21118;-79
2022/01/05 17:29:34;;;;;;;18.10;10.55;;;;;;;4.00;77.15;99193.55;1866098;76;23934;-79
2022/01/05 17:32:02;;;;;;;12.23;7.35;;;;;;;3.97;77.17;99199.97;1823016;77;21089;-79
2022/01/05 17:34:29;;;;;;;11.63;6.20;;;;;;;3.99;77.14;99198.28;1824804;77;21751;-79
2022/01/05 17:36:56;;;;;;;12.43;5.20;;;;;;;4.00;77.11;99198.77;1827628;77;20999;-78
2022/01/05 17:39:25;;;;;;;11.45;4.40;;;;;;;4.03;77.05;99204.03;1823440;78;21069;-80
2022/01/05 17:41:51;;;;;;;8.98;4.72;;;;;;;4.03;76.98;99204.03;1838446;77;21150;-80
2022/01/05 17:44:20;;;;;;;9.93;4.50;;;;;;;4.03;76.97;99201.86;1830505;77;21528;-80
2022/01/05 17:46:49;;;;;;;11.75;5.47;;;;;;;4.03;76.93;99200.55;1819579;77;21928;-82
2022/01/05 17:49:19;;;;;;;16.20;8.33;;;;;;;4.03;76.90;99201.86;1801025;78;21497;-82
2022/01/05 17:51:47;;;;;;;14.43;6.25;;;;;;;4.01;76.84;99194.00;1821624;77;21636;-82
2022/01/05 17:54:13;;;;;;;14.63;6.12;;;;;;;4.03;76.90;99198.82;1822184;78;21066;-82
2022/01/05 17:56:40;;;;;;;23.57;14.05;;;;;;;4.03;76.83;99198.82;1820350;78;21065;-82
2022/01/05 17:59:07;;;;;;;17.40;8.95;;;;;;;4.04;76.82;99201.90;1826422;77;21723;-82
2022/01/05 18:01:35;;;;;;;18.55;10.18;;;;;;;4.05;76.81;99200.17;1839358;77;21026;-82
2022/01/05 18:04:02;;;;;;;11.80;5.95;;;;;;;4.07;76.82;99201.09;1811758;78;21046;-82
2022/01/05 18:06:28;;;;;;;13.38;6.17;;;;;;;4.06;76.79;99204.12;1835800;77;21046;-82
2022/01/05 18:08:55;;;;;;;14.00;5.55;;;;;;;4.08;76.82;99201.13;1847945;76;22129;-82
2022/01/05 18:11:22;;;;;;;19.20;6.65;;;;;;;4.07;76.79;99201.99;1824354;77;21729;-82
2022/01/05 18:13:50;;;;;;;20.70;7.15;;;;;;;4.07;76.79;99207.20;1824570;77;21054;-82
2022/01/05 18:16:27;;;;;;;12.80;6.20;;;;;;;4.06;76.81;99205.42;1823188;77;21070;-82
2022/01/05 18:18:53;;;;;;;11.48;5.72;;;;;;;4.08;76.88;99206.34;1823593;77;21544;-82
2022/01/05 18:21:20;;;;;;;18.92;9.05;;;;;;;4.09;76.90;99213.72;1823633;77;21229;-82
2022/01/05 18:23:47;;;;;;;15.05;7.15;;;;;;;4.08;76.88;99214.15;1767693;78;21759;-82
2022/01/05 18:26:17;;;;;;;13.43;5.25;;;;;;;4.06;76.97;99212.36;1787758;78;21070;-82
2022/01/05 18:28:44;;;;;;;16.12;6.15;;;;;;;4.04;77.00;99213.62;1791527;78;21066;-83
2022/01/05 18:31:12;;;;;;;18.12;6.95;;;;;;;4.04;77.05;99214.05;1794474;78;21055;-82
2022/01/05 18:33:41;;;;;;;16.75;7.28;;;;;;;4.02;77.09;99213.12;1779014;79;21695;-83
2022/01/05 18:36:11;;;;;;;16.20;7.12;;;;;;;4.04;77.16;99210.14;1794394;79;21793;-82
2022/01/05 18:38:38;;;;;;;17.65;6.10;;;;;;;4.04;77.12;99216.65;1794548;78;21074;-82
2022/01/05 18:41:05;;;;;;;17.75;6.42;;;;;;;4.02;77.10;99212.70;1794310;79;21039;-83
2022/01/05 18:43:34;;;;;;;14.95;5.67;;;;;;;4.04;77.17;99221.86;1775862;79;21058;-82
2022/01/05 18:46:02;;;;;;;18.23;5.15;;;;;;;4.03;77.13;99212.27;1795470;78;21026;-82
2022/01/05 18:48:31;;;;;;;12.28;5.80;;;;;;;4.05;77.18;99221.91;1794015;79;21726;-85
2022/01/05 18:50:58;;;;;;;14.70;5.67;;;;;;;4.06;77.20;99216.27;1796496;78;21062;-85
2022/01/05 18:53:24;;;;;;;12.03;5.85;;;;;;;4.07;77.18;99217.61;1796686;79;21038;-86
2022/01/05 18:55:51;;;;;;;12.58;5.58;;;;;;;4.09;77.22;99221.14;1796586;79;21026;-84
2022/01/05 18:58:18;;;;;;;11.40;5.97;;;;;;;4.09;77.21;99223.74;1796511;78;21061;-81
2022/01/05 19:00:47;;;;;;;17.07;6.72;;;;;;;4.10;77.17;99235.03;1795206;79;21019;-77
2022/01/05 19:03:13;;;;;;;14.58;6.15;;;;;;;4.07;77.16;99227.12;1795690;78;21662;-83
2022/01/05 19:05:41;;;;;;;12.20;5.37;;;;;;;4.05;77.24;99234.02;1796043;79;21089;-82
2022/01/05 19:08:12;;;;;;;10.05;4.75;;;;;;;4.04;77.26;99233.58;1796028;78;21082;-83
2022/01/05 19:10:37;;;;;;;12.33;4.97;;;;;;;4.01;77.26;99238.69;1795114;78;21050;-83
2022/01/05 19:13:03;;;;;;;20.55;5.53;;;;;;;4.02;77.34;99233.95;1796371;78;23021;-83
2022/01/05 19:15:30;;;;;;;13.00;5.08;;;;;;;3.97;77.43;99231.64;1780484;79;21097;-83
2022/01/05 19:17:57;;;;;;;11.18;5.10;;;;;;;3.95;77.54;99231.59;1796467;78;21027;-83
2022/01/05 19:20:26;;;;;;;10.43;4.72;;;;;;;3.93;77.57;99228.50;1796493;78;21022;-83
2022/01/05 19:22:53;;;;;;;9.28;5.28;;;;;;;3.88;77.50;99233.56;1805017;78;21081;-83
2022/01/05 19:25:20;;;;;;;9.15;4.85;;;;;;;3.86;77.73;99240.02;1818804;78;22585;-83
2022/01/05 19:27:47;;;;;;;10.28;4.85;;;;;;;3.83;77.75;99236.45;1813105;77;21493;-81
2022/01/05 19:30:14;;;;;;;8.80;4.50;;;;;;;3.83;77.79;99233.45;1764563;80;21077;-83
2022/01/05 19:32:41;;;;;;;9.25;3.80;;;;;;;3.83;77.80;99240.36;1776598;80;21574;-83
2022/01/05 19:35:08;;;;;;;10.98;4.08;;;;;;;3.76;77.77;99219.80;1781798;78;21082;-82
2022/01/05 19:37:34;;;;;;;13.10;4.17;;;;;;;3.83;77.84;99237.75;1785622;80;22562;-83
2022/01/05 19:40:01;;;;;;;8.10;4.62;;;;;;;3.85;77.86;99235.67;1785992;79;21576;-82
2022/01/05 19:42:28;;;;;;;14.40;4.55;;;;;;;3.85;77.88;99236.98;1785187;80;21039;-80
2022/01/05 19:44:54;;;;;;;8.13;4.90;;;;;;;3.89;77.87;99244.45;1785082;80;21051;-82
2022/01/05 19:47:21;;;;;;;10.70;4.25;;;;;;;3.88;77.79;99242.67;1770564;80;21269;-82
2022/01/05 19:49:52;;;;;;;9.90;4.05;;;;;;;3.89;77.83;99244.45;1767782;80;22554;-83
2022/01/05 19:52:35;;;;;;;20.95;10.25;;;;;;;3.91;77.88;99236.69;1772059;80;21138;-83
2022/01/05 19:55:05;;;;;;;9.00;4.85;;;;;;;3.92;77.86;99244.95;1777222;78;21101;-82
2022/01/05 19:57:25;;;;;;;12.00;6.00;;;;;;;3.96;77.89;99245.48;1767945;78;21057;-81
2022/01/05 19:59:53;;;;;;;11.60;5.00;;;;;;;3.98;77.85;99248.61;1782615;78;21104;-81
2022/01/05 20:02:22;;;;;;;9.98;5.12;;;;;;;3.98;77.79;99244.70;1759366;80;22532;-82
2022/01/05 20:04:52;;;;;;;9.75;4.62;;;;;;;4.02;77.80;99248.28;1771019;79;21062;-83
2022/01/05 20:07:19;;;;;;;8.43;4.08;;;;;;;4.04;77.78;99251.38;1762098;80;21089;-81
2022/01/05 20:09:46;;;;;;;9.20;4.15;;;;;;;4.05;77.73;99253.55;1715832;80;21573;-81
2022/01/05 20:12:14;;;;;;;10.03;4.65;;;;;;;4.05;77.69;99257.45;1761679;78;21171;-82
2022/01/05 20:14:42;;;;;;;9.20;5.05;;;;;;;4.06;77.67;99262.70;1764760;80;21205;-81
2022/01/05 20:17:09;;;;;;;11.70;5.30;;;;;;;4.04;77.63;99257.88;1775420;78;21062;-82
2022/01/05 20:19:44;;;;;;;10.00;4.62;;;;;;;4.02;77.55;99265.20;1754219;80;21077;-81
2022/01/05 20:22:13;;;;;;;11.75;4.33;;;;;;;3.98;77.58;99262.93;1744348;80;21596;-82
2022/01/05 20:24:40;;;;;;;11.05;4.60;;;;;;;3.96;77.59;99262.41;1786504;78;21267;-83
2022/01/05 20:27:08;;;;;;;10.35;4.85;;;;;;;3.95;77.67;99260.23;1766379;80;21419;-83
2022/01/05 20:29:38;;;;;;;39.08;23.02;;;;;;;3.95;77.65;99266.73;1790149;79;21034;-77
2022/01/05 20:32:07;;;;;;;16.80;7.58;;;;;;;3.94;77.65;99269.30;1792048;80;21050;-77
2022/01/05 20:34:34;;;;;;;17.92;9.38;;;;;;;3.94;77.67;99270.59;1792655;79;21575;-80
2022/01/05 20:37:01;;;;;;;12.78;7.05;;;;;;;3.94;77.71;99268.90;1792178;78;21615;-80
2022/01/05 20:39:30;;;;;;;25.37;14.00;;;;;;;3.94;77.71;99270.20;1790258;78;21796;-80
2022/01/05 20:41:58;;;;;;;32.33;19.90;;;;;;;3.94;77.72;99266.30;1792037;78;22278;-80
2022/01/05 20:44:25;;;;;;;22.65;14.65;;;;;;;3.96;77.74;99265.91;1788983;78;21069;-80
2022/01/05 20:46:57;;;;;;;19.42;10.28;;;;;;;3.94;77.72;99270.20;1792334;78;21086;-80
2022/01/05 20:49:25;;;;;;;14.05;7.12;;;;;;;3.94;77.72;99263.69;1792203;78;21047;-80
2022/01/05 20:51:56;;;;;;;14.90;8.35;;;;;;;3.95;77.78;99269.77;1791726;78;21065;-80
2022/01/05 20:54:30;;;;;;;48.10;31.93;;;;;;;3.94;77.74;99271.50;1791788;79;21015;-80
2022/01/05 20:57:01;;;;;;;18.70;10.60;;;;;;;3.95;77.77;99268.04;1791054;78;21046;-79
2022/01/05 20:59:27;;;;;;;14.28;7.22;;;;;;;3.96;77.79;99268.52;1792654;78;21110;-80
2022/01/05 21:01:53;;;;;;;12.43;6.87;;;;;;;3.96;77.73;99262.41;1792760;78;21105;-82
2022/01/05 21:04:20;;;;;;;19.27;8.50;;;;;;;3.95;77.72;99273.67;1762638;79;22563;-78
2022/01/05 21:06:47;;;;;;;17.52;7.75;;;;;;;3.92;77.72;99278.36;1787115;78;20983;-79
2022/01/05 21:09:16;;;;;;;13.18;7.47;;;;;;;3.91;77.76;99271.84;1790374;78;21012;-79
2022/01/05 21:11:45;;;;;;;16.55;7.70;;;;;;;3.87;77.71;99269.13;1723039;80;21230;-79
2022/01/05 21:14:12;;;;;;;17.95;10.30;;;;;;;3.78;77.73;99254.56;1790071;79;21113;-79
2022/01/05 21:16:46;;;;;;;16.48;8.75;;;;;;;3.82;77.75;99265.94;1789759;79;21689;-79
2022/01/05 21:19:11;;;;;;;19.07;9.43;;;;;;;3.83;77.81;99271.59;1802663;78;21070;-79
2022/01/05 21:21:38;;;;;;;32.38;18.25;;;;;;;3.82;77.78;99271.14;1804184;78;21651;-79
2022/01/05 21:24:05;;;;;;;22.05;12.53;;;;;;;3.82;77.81;99268.54;1791763;78;21046;-79
2022/01/05 21:26:33;;;;;;;20.95;11.83;;;;;;;3.83;77.76;99276.40;1791715;78;21038;-79
2022/01/05 21:29:00;;;;;;;20.25;12.43;;;;;;;3.82;77.76;99267.23;1789978;78;22432;-79
2022/01/05 21:31:29;;;;;;;22.75;13.00;;;;;;;3.81;77.72;99275.88;1785703;80;21070;-79
2022/01/05 21:33:57;;;;;;;18.77;11.93;;;;;;;3.81;77.77;99275.88;1786140;79;21113;-78
2022/01/05 21:36:26;;;;;;;20.90;13.03;;;;;;;3.83;77.69;99277.70;1784797;80;21058;-78
2022/01/05 21:38:53;;;;;;;26.95;16.45;;;;;;;3.83;77.69;99285.51;1780336;80;21121;-78
2022/01/05 21:41:22;;;;;;;28.95;19.98;;;;;;;3.85;77.75;99288.16;1782690;79;21158;-78
2022/01/05 21:43:49;;;;;;;17.02;12.63;;;;;;;3.86;77.74;99292.08;1784001;79;21086;-78
2022/01/05 21:46:19;;;;;;;28.40;15.78;;;;;;;3.87;77.69;99286.48;1784425;80;21050;-78
2022/01/05 21:48:46;;;;;;;28.27;18.70;;;;;;;3.90;77.67;99286.55;1784354;80;21043;-78